Terminal Aerodrome Forecast
Issued by NWS

Home | Current Version | Previous Version | Text Only | Print | Product List | Glossary On
Versions: 1 2 3 4 5 6 7 8 9 10 11 12 13 14 15 16 17 18 19 20 21
335
FTUS43 KDLH 242334
TAFHIB
TAF
KHIB 242334Z 2500/2524 16005KT P6SM BKN250
     FM250700 16004KT 5SM BR SCT030 BKN250
     FM251100 16004KT 4SM BR BKN025
     FM251500 17008KT P6SM BKN020 OVC030 PROB30 2521/2524 6SM -TSRA
      BKN020CB=

USA.gov is the U.S. government's official web portal to all federal, state and local government web resources and services.